Time;durP1;ratioP1;P1;durP2;ratioP2;P2;SDS_P1;SDS_P2;PMS_P1;PMS_P2;Temp;Humidity;BMP_temperature;BMP_pressure;BME280_temperature;BME280_humidity;BME280_pressure;Samples;Min_cycle;Max_cycle;Signal;HPM_P1;HPM_P2
2023/12/21 00:02:05;;;;;;;;;3.00;1.00;;;;;;;;5073858;28;45482;-70
2023/12/21 00:04:32;;;;;;;;;2.67;1.00;;;;;;;;5073281;28;45429;-68
2023/12/21 00:06:57;;;;;;;;;4.00;1.00;;;;;;;;5072097;28;45402;-69
2023/12/21 00:09:22;;;;;;;;;1.00;1.00;;;;;;;;5079868;28;45988;-69
2023/12/21 00:11:47;;;;;;;;;1.00;1.00;;;;;;;;5060504;28;45589;-68
2023/12/21 00:14:12;;;;;;;;;4.00;1.00;;;;;;;;5080242;28;45391;-70
2023/12/21 00:16:38;;;;;;;;;1.67;0.00;;;;;;;;5080272;28;45452;-69
2023/12/21 00:19:03;;;;;;;;;0.67;0.67;;;;;;;;5079326;28;45721;-68
2023/12/21 00:21:28;;;;;;;;;1.00;0.00;;;;;;;;5080304;28;45503;-69
2023/12/21 00:23:53;;;;;;;;;0.00;0.00;;;;;;;;5079569;28;45285;-69
2023/12/21 00:26:19;;;;;;;;;3.33;0.67;;;;;;;;5080506;28;45350;-69
2023/12/21 00:28:44;;;;;;;;;1.00;0.00;;;;;;;;5079435;28;47149;-68
2023/12/21 00:31:09;;;;;;;;;2.00;1.00;;;;;;;;5079818;28;45320;-71
2023/12/21 00:33:34;;;;;;;;;3.67;0.00;;;;;;;;5079073;28;45150;-71
2023/12/21 00:35:59;;;;;;;;;2.67;1.33;;;;;;;;5077183;28;45409;-69
2023/12/21 00:38:25;;;;;;;;;3.67;0.00;;;;;;;;5079395;28;45459;-69
2023/12/21 00:40:50;;;;;;;;;2.00;0.33;;;;;;;;5079479;28;45361;-67
2023/12/21 00:43:15;;;;;;;;;1.33;1.00;;;;;;;;5078754;28;45347;-68
2023/12/21 00:45:40;;;;;;;;;0.00;0.00;;;;;;;;5076322;28;45182;-68
2023/12/21 00:48:06;;;;;;;;;1.00;1.00;;;;;;;;5079097;28;46935;-69
2023/12/21 00:50:31;;;;;;;;;4.33;1.00;;;;;;;;5078036;28;45478;-68
2023/12/21 00:52:56;;;;;;;;;1.00;1.00;;;;;;;;5078230;28;45265;-68
2023/12/21 00:55:21;;;;;;;;;0.00;0.00;;;;;;;;5079094;28;45759;-70
2023/12/21 00:57:47;;;;;;;;;5.33;1.67;;;;;;;;5079157;28;46714;-70
2023/12/21 01:00:12;;;;;;;;;5.33;0.00;;;;;;;;5079450;28;45569;-67
2023/12/21 01:02:38;;;;;;;;;6.33;1.33;;;;;;;;5077609;28;45465;-70
2023/12/21 01:05:03;;;;;;;;;5.00;0.33;;;;;;;;5079209;28;45446;-68
2023/12/21 01:07:28;;;;;;;;;2.00;1.00;;;;;;;;5073341;27;47910;-70
2023/12/21 01:09:54;;;;;;;;;2.00;2.00;;;;;;;;5079022;28;45613;-67
2023/12/21 01:12:19;;;;;;;;;2.67;1.00;;;;;;;;5078066;28;45430;-67
2023/12/21 01:14:44;;;;;;;;;3.67;1.00;;;;;;;;5075237;28;45327;-68
2023/12/21 01:17:09;;;;;;;;;3.00;1.00;;;;;;;;5074607;28;45500;-69
2023/12/21 01:19:35;;;;;;;;;4.00;1.00;;;;;;;;5058608;28;45470;-68
2023/12/21 01:22:00;;;;;;;;;3.33;1.00;;;;;;;;5075576;28;45426;-68
2023/12/21 01:24:25;;;;;;;;;2.00;0.67;;;;;;;;5077707;28;45217;-67
2023/12/21 01:26:50;;;;;;;;;3.00;0.33;;;;;;;;5079349;28;45748;-70
2023/12/21 01:29:16;;;;;;;;;2.67;2.67;;;;;;;;5078777;28;45708;-70
2023/12/21 01:31:41;;;;;;;;;2.00;0.67;;;;;;;;5079111;28;45278;-67
2023/12/21 01:34:06;;;;;;;;;1.67;1.00;;;;;;;;5054005;28;45650;-68
2023/12/21 01:36:31;;;;;;;;;3.00;1.00;;;;;;;;5078753;28;45697;-68
2023/12/21 01:38:57;;;;;;;;;2.67;1.00;;;;;;;;5078680;28;45514;-68
2023/12/21 01:41:22;;;;;;;;;3.00;0.00;;;;;;;;5074502;28;45542;-69
2023/12/21 01:43:47;;;;;;;;;3.67;1.67;;;;;;;;5077428;28;45316;-68
2023/12/21 01:46:13;;;;;;;;;0.00;0.00;;;;;;;;5078353;28;46627;-68
2023/12/21 01:48:39;;;;;;;;;1.00;1.00;;;;;;;;5072388;28;45554;-70
2023/12/21 01:51:04;;;;;;;;;5.00;0.00;;;;;;;;5074577;28;45226;-67
2023/12/21 01:53:31;;;;;;;;;2.00;0.33;;;;;;;;5060827;28;45240;-69
2023/12/21 01:55:57;;;;;;;;;2.00;0.33;;;;;;;;5078179;28;45908;-67
2023/12/21 01:58:23;;;;;;;;;0.00;0.00;;;;;;;;5077592;28;45763;-67
2023/12/21 02:00:48;;;;;;;;;2.00;0.33;;;;;;;;5072672;28;45442;-67
2023/12/21 02:03:14;;;;;;;;;1.00;1.00;;;;;;;;5077066;28;45361;-68
2023/12/21 02:05:39;;;;;;;;;2.33;0.00;;;;;;;;5077308;28;45675;-67
2023/12/21 02:08:05;;;;;;;;;3.00;0.00;;;;;;;;5077552;28;45421;-68
2023/12/21 02:10:30;;;;;;;;;3.00;0.00;;;;;;;;5074143;28;45417;-68
2023/12/21 02:12:56;;;;;;;;;2.67;1.00;;;;;;;;5076971;28;45582;-68
2023/12/21 02:15:21;;;;;;;;;0.00;0.00;;;;;;;;5074356;28;46375;-68
2023/12/21 02:17:48;;;;;;;;;0.00;0.00;;;;;;;;5075030;28;45289;-70
2023/12/21 02:20:13;;;;;;;;;2.00;0.00;;;;;;;;5078214;28;45460;-68
2023/12/21 02:22:41;;;;;;;;;1.33;1.00;;;;;;;;5078042;28;45290;-69
2023/12/21 02:25:06;;;;;;;;;1.00;0.00;;;;;;;;5076023;28;45608;-71
2023/12/21 02:27:32;;;;;;;;;2.00;0.33;;;;;;;;5075772;28;45231;-70
2023/12/21 02:29:57;;;;;;;;;2.00;0.00;;;;;;;;5077386;28;45399;-69
2023/12/21 02:32:23;;;;;;;;;1.00;0.00;;;;;;;;5078041;28;45387;-68
2023/12/21 02:34:49;;;;;;;;;2.00;0.00;;;;;;;;5075351;28;45822;-68
2023/12/21 02:37:14;;;;;;;;;3.00;0.00;;;;;;;;5078130;28;45494;-68
2023/12/21 02:39:39;;;;;;;;;0.00;0.00;;;;;;;;5077681;28;46533;-68
2023/12/21 02:42:05;;;;;;;;;0.33;0.00;;;;;;;;5077936;28;45324;-68
2023/12/21 02:44:30;;;;;;;;;1.00;0.00;;;;;;;;5077327;28;45318;-69
2023/12/21 02:46:57;;;;;;;;;2.00;0.00;;;;;;;;5076893;28;45568;-68
2023/12/21 02:49:22;;;;;;;;;0.33;0.00;;;;;;;;5077274;28;45428;-68
2023/12/21 02:51:47;;;;;;;;;0.00;0.00;;;;;;;;5073274;28;45507;-70
2023/12/21 02:54:13;;;;;;;;;0.00;0.00;;;;;;;;5076441;28;45927;-67
2023/12/21 02:56:38;;;;;;;;;0.00;0.00;;;;;;;;5076934;28;45409;-68
2023/12/21 02:59:03;;;;;;;;;2.33;0.00;;;;;;;;5077152;28;45229;-69
2023/12/21 03:01:29;;;;;;;;;1.67;0.00;;;;;;;;5077672;28;45627;-68
2023/12/21 03:03:54;;;;;;;;;0.00;0.00;;;;;;;;5076929;28;45599;-68
2023/12/21 03:06:19;;;;;;;;;0.00;0.00;;;;;;;;5058131;28;45400;-70
2023/12/21 03:08:45;;;;;;;;;3.00;0.00;;;;;;;;5073560;28;45483;-71
2023/12/21 03:11:10;;;;;;;;;0.00;0.00;;;;;;;;5077495;28;47317;-68
2023/12/21 03:13:35;;;;;;;;;2.00;0.00;;;;;;;;5077315;28;47169;-68
2023/12/21 03:16:06;;;;;;;;;0.67;0.00;;;;;;;;5076406;28;45438;-68
2023/12/21 03:18:32;;;;;;;;;0.00;0.00;;;;;;;;5076799;28;45308;-67
2023/12/21 03:20:57;;;;;;;;;0.00;0.00;;;;;;;;5075553;28;45418;-69
2023/12/21 03:23:23;;;;;;;;;1.33;1.00;;;;;;;;5076993;28;46638;-67
2023/12/21 03:25:48;;;;;;;;;0.00;0.00;;;;;;;;5076987;28;45362;-69
2023/12/21 03:28:14;;;;;;;;;0.00;0.00;;;;;;;;5076414;28;45272;-70
2023/12/21 03:30:39;;;;;;;;;1.00;0.00;;;;;;;;5076867;28;45326;-68
2023/12/21 03:33:05;;;;;;;;;0.00;0.00;;;;;;;;5071270;28;45735;-68
2023/12/21 03:35:30;;;;;;;;;2.00;0.00;;;;;;;;5073634;28;45505;-69
2023/12/21 03:37:55;;;;;;;;;1.00;0.00;;;;;;;;5074043;28;45615;-68
2023/12/21 03:40:20;;;;;;;;;0.00;0.00;;;;;;;;5077062;28;45315;-68
2023/12/21 03:42:49;;;;;;;;;0.00;0.00;;;;;;;;5075485;28;45876;-69
2023/12/21 03:45:14;;;;;;;;;1.00;0.00;;;;;;;;5074805;28;45268;-70
2023/12/21 03:47:40;;;;;;;;;0.00;0.00;;;;;;;;5076680;28;45423;-68
2023/12/21 03:50:05;;;;;;;;;0.00;0.00;;;;;;;;5076059;28;45458;-70
2023/12/21 03:52:30;;;;;;;;;0.00;0.00;;;;;;;;5076893;28;45886;-68
2023/12/21 03:54:55;;;;;;;;;0.00;0.00;;;;;;;;5075926;28;45457;-69
2023/12/21 03:57:20;;;;;;;;;0.00;0.00;;;;;;;;5076819;28;45480;-69
2023/12/21 03:59:46;;;;;;;;;0.00;0.00;;;;;;;;5074607;28;45664;-70
2023/12/21 04:02:11;;;;;;;;;0.00;0.00;;;;;;;;5076135;28;47046;-68
2023/12/21 04:04:36;;;;;;;;;0.00;0.00;;;;;;;;5057946;28;46049;-69
2023/12/21 04:07:01;;;;;;;;;0.00;0.00;;;;;;;;5076091;28;45611;-69
2023/12/21 04:09:26;;;;;;;;;1.00;0.00;;;;;;;;5077003;28;45334;-68
2023/12/21 04:11:52;;;;;;;;;0.00;0.00;;;;;;;;5071104;28;46729;-69
2023/12/21 04:14:17;;;;;;;;;0.67;0.00;;;;;;;;5076243;28;45311;-67
2023/12/21 04:16:42;;;;;;;;;0.00;0.00;;;;;;;;5075885;28;45430;-68
2023/12/21 04:19:08;;;;;;;;;2.00;0.00;;;;;;;;5076497;28;45520;-69
2023/12/21 04:21:33;;;;;;;;;0.00;0.00;;;;;;;;5076500;28;47506;-70
2023/12/21 04:23:58;;;;;;;;;1.00;0.00;;;;;;;;5076014;28;45399;-67
2023/12/21 04:26:23;;;;;;;;;0.00;0.00;;;;;;;;5064112;28;45760;-68
2023/12/21 04:28:49;;;;;;;;;1.00;0.00;;;;;;;;5055804;28;45224;-69
2023/12/21 04:31:20;;;;;;;;;0.00;0.00;;;;;;;;5075799;28;46570;-70
2023/12/21 04:33:48;;;;;;;;;0.00;0.00;;;;;;;;5075746;28;45467;-68
2023/12/21 04:36:14;;;;;;;;;0.00;0.00;;;;;;;;5076476;28;45462;-69
2023/12/21 04:38:39;;;;;;;;;0.00;0.00;;;;;;;;5071758;28;45220;-70
2023/12/21 04:41:04;;;;;;;;;0.00;0.00;;;;;;;;5074413;28;45471;-69
2023/12/21 04:43:29;;;;;;;;;0.00;0.00;;;;;;;;5075541;28;45275;-67
2023/12/21 04:45:54;;;;;;;;;0.00;0.00;;;;;;;;5075439;28;45423;-68
2023/12/21 04:48:20;;;;;;;;;0.00;0.00;;;;;;;;5075694;28;45532;-68
2023/12/21 04:50:45;;;;;;;;;0.00;0.00;;;;;;;;5073059;28;45952;-68
2023/12/21 04:53:10;;;;;;;;;1.00;0.00;;;;;;;;5076738;28;45225;-68
2023/12/21 04:55:35;;;;;;;;;0.00;0.00;;;;;;;;5079971;28;45497;-69
2023/12/21 04:58:00;;;;;;;;;0.00;0.00;;;;;;;;5079600;28;45389;-70
2023/12/21 05:00:29;;;;;;;;;0.00;0.00;;;;;;;;5076058;28;46264;-68
2023/12/21 05:02:54;;;;;;;;;0.00;0.00;;;;;;;;5071830;28;45285;-68
2023/12/21 05:05:21;;;;;;;;;0.00;0.00;;;;;;;;5079045;27;45446;-69
2023/12/21 05:07:46;;;;;;;;;2.00;0.00;;;;;;;;5079022;28;45542;-67
2023/12/21 05:10:11;;;;;;;;;0.00;0.00;;;;;;;;5079358;28;46786;-68
2023/12/21 05:12:36;;;;;;;;;0.00;0.00;;;;;;;;5078938;28;45278;-68
2023/12/21 05:15:01;;;;;;;;;0.00;0.00;;;;;;;;5078075;28;45275;-68
2023/12/21 05:17:27;;;;;;;;;0.00;0.00;;;;;;;;5079639;28;45346;-68
2023/12/21 05:19:52;;;;;;;;;0.00;0.00;;;;;;;;5078683;28;45446;-70
2023/12/21 05:22:17;;;;;;;;;0.33;0.00;;;;;;;;5078857;28;45391;-68
2023/12/21 05:24:42;;;;;;;;;0.00;0.00;;;;;;;;5079633;28;45291;-70
2023/12/21 05:27:07;;;;;;;;;0.00;0.00;;;;;;;;5079096;28;45170;-68
2023/12/21 05:29:32;;;;;;;;;0.00;0.00;;;;;;;;5072998;28;45609;-70
2023/12/21 05:31:58;;;;;;;;;0.00;0.00;;;;;;;;5078141;28;45240;-68
2023/12/21 05:34:23;;;;;;;;;0.00;0.00;;;;;;;;5074726;28;45143;-68
2023/12/21 05:36:48;;;;;;;;;0.00;0.00;;;;;;;;5066281;28;45500;-69
2023/12/21 05:39:13;;;;;;;;;0.33;0.00;;;;;;;;5060368;28;48571;-67
2023/12/21 05:41:38;;;;;;;;;0.00;0.00;;;;;;;;5073834;28;45298;-68
2023/12/21 05:44:04;;;;;;;;;0.00;0.00;;;;;;;;5077993;28;45376;-68
2023/12/21 05:46:29;;;;;;;;;0.00;0.00;;;;;;;;5077559;28;45398;-69
2023/12/21 05:48:55;;;;;;;;;0.00;0.00;;;;;;;;5078958;28;45928;-70
2023/12/21 05:51:20;;;;;;;;;0.00;0.00;;;;;;;;5074898;28;45318;-67
2023/12/21 05:53:45;;;;;;;;;0.00;0.00;;;;;;;;5069962;28;45213;-67
2023/12/21 05:56:11;;;;;;;;;0.00;0.00;;;;;;;;5076241;28;45386;-69
2023/12/21 05:58:36;;;;;;;;;0.00;0.00;;;;;;;;5077215;28;46656;-66
2023/12/21 06:01:01;;;;;;;;;0.00;0.00;;;;;;;;5078007;28;45264;-68
2023/12/21 06:06:03;;;;;;;;;0.00;0.00;;;;;;;;5201206;22;46112;-68
2023/12/21 06:08:28;;;;;;;;;0.00;0.00;;;;;;;;5054416;28;45731;-68
2023/12/21 06:10:53;;;;;;;;;0.00;0.00;;;;;;;;5055743;28;45527;-67
2023/12/21 06:13:18;;;;;;;;;0.00;0.00;;;;;;;;5057530;28;45642;-67
2023/12/21 06:15:44;;;;;;;;;0.00;0.00;;;;;;;;5055535;28;45407;-66
2023/12/21 06:18:09;;;;;;;;;0.00;0.00;;;;;;;;5053215;28;46066;-67
2023/12/21 06:20:35;;;;;;;;;0.00;0.00;;;;;;;;5057740;28;45439;-67
2023/12/21 06:23:00;;;;;;;;;0.00;0.00;;;;;;;;5051626;28;45569;-66
2023/12/21 06:25:25;;;;;;;;;0.00;0.00;;;;;;;;5049769;28;45598;-65
2023/12/21 06:27:50;;;;;;;;;0.00;0.00;;;;;;;;5049263;28;45604;-68
2023/12/21 06:30:15;;;;;;;;;0.00;0.00;;;;;;;;5047851;28;45459;-66
2023/12/21 06:32:41;;;;;;;;;0.00;0.00;;;;;;;;5041102;28;45471;-71
2023/12/21 06:35:06;;;;;;;;;0.00;0.00;;;;;;;;5055277;28;45365;-67
2023/12/21 06:37:31;;;;;;;;;0.00;0.00;;;;;;;;5045682;28;45668;-66
2023/12/21 06:39:57;;;;;;;;;0.00;0.00;;;;;;;;5054107;28;45623;-65
2023/12/21 06:42:22;;;;;;;;;0.00;0.00;;;;;;;;5057230;28;45571;-68
2023/12/21 06:44:47;;;;;;;;;1.00;0.00;;;;;;;;5057392;28;45594;-68
2023/12/21 06:47:12;;;;;;;;;0.00;0.00;;;;;;;;5057138;28;45701;-67
2023/12/21 06:49:38;;;;;;;;;0.00;0.00;;;;;;;;5057066;28;45432;-69
2023/12/21 06:52:03;;;;;;;;;0.00;0.00;;;;;;;;5057648;28;45362;-68
2023/12/21 06:54:28;;;;;;;;;0.00;0.00;;;;;;;;5057414;28;45181;-68
2023/12/21 06:56:53;;;;;;;;;0.00;0.00;;;;;;;;5057279;28;46435;-67
2023/12/21 06:59:19;;;;;;;;;0.00;0.00;;;;;;;;5056726;28;45234;-65
2023/12/21 07:01:44;;;;;;;;;0.00;0.00;;;;;;;;5056736;28;45633;-68
2023/12/21 07:04:09;;;;;;;;;0.00;0.00;;;;;;;;5057382;28;45376;-67
2023/12/21 07:06:34;;;;;;;;;0.00;0.00;;;;;;;;5055954;28;45850;-68
2023/12/21 07:09:00;;;;;;;;;0.00;0.00;;;;;;;;5056579;28;45446;-69
2023/12/21 07:11:26;;;;;;;;;0.00;0.00;;;;;;;;5057164;28;45450;-67
2023/12/21 07:13:51;;;;;;;;;0.00;0.00;;;;;;;;5057203;28;45365;-70
2023/12/21 07:16:16;;;;;;;;;0.00;0.00;;;;;;;;5057035;28;45543;-68
2023/12/21 07:18:41;;;;;;;;;0.00;0.00;;;;;;;;5054317;28;45384;-68
2023/12/21 07:21:06;;;;;;;;;0.00;0.00;;;;;;;;5056659;28;45252;-70
2023/12/21 07:23:32;;;;;;;;;0.00;0.00;;;;;;;;5045868;28;45571;-68
2023/12/21 07:25:57;;;;;;;;;0.00;0.00;;;;;;;;5055055;28;46593;-68
2023/12/21 07:28:22;;;;;;;;;1.00;0.00;;;;;;;;5050515;28;45479;-69
2023/12/21 07:30:47;;;;;;;;;1.00;0.00;;;;;;;;5050440;28;45423;-68
2023/12/21 07:33:12;;;;;;;;;0.67;0.00;;;;;;;;5048335;28;45382;-70
2023/12/21 07:35:38;;;;;;;;;0.00;0.00;;;;;;;;5045043;28;46798;-70
2023/12/21 07:38:03;;;;;;;;;0.00;0.00;;;;;;;;5044503;28;45431;-69
2023/12/21 07:40:28;;;;;;;;;0.00;0.00;;;;;;;;5042655;28;45575;-68
2023/12/21 07:42:54;;;;;;;;;0.00;0.00;;;;;;;;5045602;28;45511;-68
2023/12/21 07:45:19;;;;;;;;;0.00;0.00;;;;;;;;5043999;28;45641;-71
2023/12/21 07:47:44;;;;;;;;;0.00;0.00;;;;;;;;5042781;28;45652;-68
2023/12/21 07:50:09;;;;;;;;;0.00;0.00;;;;;;;;5045127;28;45644;-69
2023/12/21 07:52:35;;;;;;;;;0.00;0.00;;;;;;;;5046566;28;45606;-76
2023/12/21 07:55:00;;;;;;;;;0.00;0.00;;;;;;;;5043617;28;45781;-77
2023/12/21 07:57:25;;;;;;;;;0.00;0.00;;;;;;;;5042393;28;45532;-73
2023/12/21 07:59:50;;;;;;;;;0.00;0.00;;;;;;;;5043904;28;45745;-74
2023/12/21 08:02:16;;;;;;;;;0.00;0.00;;;;;;;;5043447;28;45253;-74
2023/12/21 08:04:42;;;;;;;;;1.00;0.00;;;;;;;;5046984;28;46034;-74
2023/12/21 08:07:07;;;;;;;;;0.00;0.00;;;;;;;;5053227;28;45550;-73
2023/12/21 08:09:32;;;;;;;;;1.00;0.00;;;;;;;;5050125;28;45367;-72
2023/12/21 08:11:57;;;;;;;;;1.00;0.00;;;;;;;;5054839;28;45459;-74
2023/12/21 08:14:26;;;;;;;;;0.00;0.00;;;;;;;;5054892;28;45932;-74
2023/12/21 08:16:52;;;;;;;;;0.00;0.00;;;;;;;;5058778;28;45454;-74
2023/12/21 08:19:18;;;;;;;;;0.00;0.00;;;;;;;;5052117;28;45573;-69
2023/12/21 08:21:43;;;;;;;;;0.00;0.00;;;;;;;;5054868;28;45506;-69
2023/12/21 08:24:09;;;;;;;;;0.00;0.00;;;;;;;;5054715;28;46402;-69
2023/12/21 08:26:35;;;;;;;;;0.00;0.00;;;;;;;;5048986;28;45427;-68
2023/12/21 08:29:00;;;;;;;;;0.00;0.00;;;;;;;;5056134;28;45383;-69
2023/12/21 08:31:26;;;;;;;;;0.00;0.00;;;;;;;;5048040;28;45588;-69
2023/12/21 08:33:51;;;;;;;;;0.00;0.00;;;;;;;;5051501;28;45784;-70
2023/12/21 08:36:17;;;;;;;;;0.00;0.00;;;;;;;;5056525;28;45399;-69
2023/12/21 08:38:42;;;;;;;;;1.00;0.00;;;;;;;;5050908;28;45492;-68
2023/12/21 08:41:07;;;;;;;;;0.00;0.00;;;;;;;;5046851;28;45564;-68
2023/12/21 08:43:32;;;;;;;;;0.00;0.00;;;;;;;;5050397;28;46337;-67
2023/12/21 08:45:58;;;;;;;;;0.00;0.00;;;;;;;;5049563;28;45582;-68
2023/12/21 08:48:23;;;;;;;;;0.00;0.00;;;;;;;;5050498;28;45732;-70
2023/12/21 08:50:48;;;;;;;;;0.00;0.00;;;;;;;;5047681;28;45431;-68
2023/12/21 08:53:13;;;;;;;;;0.00;0.00;;;;;;;;5046036;28;45951;-69
2023/12/21 08:55:39;;;;;;;;;0.00;0.00;;;;;;;;5048188;28;45490;-67
2023/12/21 08:58:04;;;;;;;;;0.00;0.00;;;;;;;;5049056;28;45551;-67
2023/12/21 09:00:29;;;;;;;;;0.00;0.00;;;;;;;;5046415;28;45553;-67
2023/12/21 09:02:54;;;;;;;;;0.00;0.00;;;;;;;;5045716;28;45499;-68
2023/12/21 09:05:20;;;;;;;;;0.00;0.00;;;;;;;;5047290;28;45478;-69
2023/12/21 09:07:45;;;;;;;;;0.00;0.00;;;;;;;;5028902;28;45454;-68
2023/12/21 09:10:10;;;;;;;;;0.00;0.00;;;;;;;;5047384;28;45558;-71
2023/12/21 09:12:35;;;;;;;;;0.00;0.00;;;;;;;;5048303;28;46467;-68
2023/12/21 09:15:01;;;;;;;;;0.00;0.00;;;;;;;;5050986;28;45464;-68
2023/12/21 09:17:26;;;;;;;;;0.00;0.00;;;;;;;;5051361;28;45641;-69
2023/12/21 09:19:51;;;;;;;;;0.00;0.00;;;;;;;;5049705;28;45546;-68
2023/12/21 09:22:16;;;;;;;;;0.00;0.00;;;;;;;;5051639;28;45446;-67
2023/12/21 09:24:41;;;;;;;;;0.00;0.00;;;;;;;;5053157;28;45459;-68
2023/12/21 09:27:07;;;;;;;;;0.00;0.00;;;;;;;;5048160;28;45504;-68
2023/12/21 09:29:32;;;;;;;;;0.00;0.00;;;;;;;;5049388;28;45352;-68
2023/12/21 09:31:57;;;;;;;;;0.00;0.00;;;;;;;;5051566;28;46525;-70
2023/12/21 09:34:22;;;;;;;;;0.00;0.00;;;;;;;;5037812;28;46230;-68
2023/12/21 09:36:48;;;;;;;;;0.00;0.00;;;;;;;;5053363;28;45501;-70
2023/12/21 09:39:13;;;;;;;;;0.00;0.00;;;;;;;;5052571;28;45777;-68
2023/12/21 09:41:38;;;;;;;;;0.67;0.00;;;;;;;;5052366;28;46362;-68
2023/12/21 09:44:05;;;;;;;;;0.00;0.00;;;;;;;;5055440;28;45478;-68
2023/12/21 09:46:37;;;;;;;;;0.00;0.00;;;;;;;;5058050;28;45448;-68
2023/12/21 09:49:02;;;;;;;;;0.00;0.00;;;;;;;;5056001;28;45572;-68
2023/12/21 09:51:28;;;;;;;;;0.00;0.00;;;;;;;;5048922;28;47069;-68
2023/12/21 09:53:54;;;;;;;;;0.00;0.00;;;;;;;;5045724;28;45510;-67
2023/12/21 09:56:20;;;;;;;;;0.00;0.00;;;;;;;;5040527;28;45476;-68
2023/12/21 09:58:46;;;;;;;;;0.00;0.00;;;;;;;;5047578;28;45487;-68
2023/12/21 10:01:12;;;;;;;;;0.00;0.00;;;;;;;;5048923;28;46063;-66
2023/12/21 10:03:37;;;;;;;;;0.00;0.00;;;;;;;;5053730;28;45371;-67
2023/12/21 10:06:03;;;;;;;;;1.00;0.00;;;;;;;;5056496;28;45550;-66
2023/12/21 10:08:28;;;;;;;;;0.00;0.00;;;;;;;;5055929;28;45511;-68
2023/12/21 10:10:54;;;;;;;;;1.00;0.00;;;;;;;;5055884;28;46536;-67
2023/12/21 10:13:19;;;;;;;;;0.00;0.00;;;;;;;;5056438;28;45644;-65
2023/12/21 10:15:46;;;;;;;;;0.00;0.00;;;;;;;;5056698;28;45507;-67
2023/12/21 10:18:12;;;;;;;;;5.00;0.00;;;;;;;;5044337;28;45506;-67
2023/12/21 10:20:37;;;;;;;;;0.00;0.00;;;;;;;;5050631;28;45967;-65
2023/12/21 10:23:03;;;;;;;;;1.00;0.00;;;;;;;;5039726;28;46658;-67
2023/12/21 10:25:28;;;;;;;;;0.00;0.00;;;;;;;;5056622;28;45358;-68
2023/12/21 10:27:57;;;;;;;;;0.00;0.00;;;;;;;;5056015;28;45460;-67
2023/12/21 10:30:25;;;;;;;;;0.00;0.00;;;;;;;;5055563;28;46589;-66
2023/12/21 10:32:51;;;;;;;;;0.00;0.00;;;;;;;;5054779;28;46725;-65
2023/12/21 10:35:16;;;;;;;;;2.33;0.00;;;;;;;;5055634;28;45497;-68
2023/12/21 10:37:42;;;;;;;;;0.00;0.00;;;;;;;;5055800;28;45710;-65
2023/12/21 10:40:07;;;;;;;;;0.00;0.00;;;;;;;;5053579;28;45942;-67
2023/12/21 10:42:32;;;;;;;;;0.00;0.00;;;;;;;;5054022;28;45391;-69
2023/12/21 10:44:59;;;;;;;;;1.00;0.00;;;;;;;;5055800;28;45474;-65
2023/12/21 10:47:24;;;;;;;;;2.00;0.33;;;;;;;;5056092;28;45608;-68
2023/12/21 10:49:50;;;;;;;;;1.00;0.00;;;;;;;;5055450;28;45919;-65
2023/12/21 10:52:16;;;;;;;;;1.00;0.00;;;;;;;;5055724;28;45403;-67
2023/12/21 10:54:42;;;;;;;;;0.00;0.00;;;;;;;;5056411;28;45512;-66
2023/12/21 10:57:07;;;;;;;;;1.33;0.00;;;;;;;;5055724;28;45422;-68
2023/12/21 10:59:33;;;;;;;;;0.00;0.00;;;;;;;;5055540;28;46724;-67
2023/12/21 11:01:59;;;;;;;;;0.00;0.00;;;;;;;;5056606;28;45586;-67
2023/12/21 11:04:26;;;;;;;;;2.67;0.00;;;;;;;;5061275;28;46355;-67
2023/12/21 11:06:52;;;;;;;;;0.00;0.00;;;;;;;;5055773;28;45513;-67
2023/12/21 11:09:19;;;;;;;;;0.00;0.00;;;;;;;;5054992;28;45732;-67
2023/12/21 11:11:45;;;;;;;;;0.00;0.00;;;;;;;;5048157;28;45266;-69
2023/12/21 11:14:11;;;;;;;;;0.00;0.00;;;;;;;;5049936;28;45506;-68
2023/12/21 11:16:41;;;;;;;;;0.00;0.00;;;;;;;;5050728;28;45489;-69
2023/12/21 11:19:07;;;;;;;;;2.00;0.00;;;;;;;;5042149;28;46933;-67
2023/12/21 11:21:33;;;;;;;;;0.67;0.67;;;;;;;;5048153;28;45468;-69
2023/12/21 11:23:58;;;;;;;;;3.00;0.00;;;;;;;;5052533;28;45375;-67
2023/12/21 11:26:25;;;;;;;;;2.00;0.00;;;;;;;;5051674;28;45610;-65
2023/12/21 11:28:51;;;;;;;;;4.33;0.33;;;;;;;;5046842;28;46810;-68
2023/12/21 11:31:18;;;;;;;;;1.00;1.00;;;;;;;;5045637;28;45435;-68
2023/12/21 11:33:43;;;;;;;;;1.00;0.00;;;;;;;;5034878;28;45465;-69
2023/12/21 11:36:08;;;;;;;;;2.00;1.00;;;;;;;;5050207;28;45733;-70
2023/12/21 11:38:40;;;;;;;;;1.00;1.00;;;;;;;;5043370;28;46499;-67
2023/12/21 11:41:06;;;;;;;;;2.33;0.00;;;;;;;;5049021;28;45444;-67
2023/12/21 11:43:31;;;;;;;;;1.67;1.00;;;;;;;;5046969;28;46959;-68
2023/12/21 11:45:56;;;;;;;;;3.33;1.00;;;;;;;;5052586;28;45495;-66
2023/12/21 11:48:21;;;;;;;;;3.00;0.00;;;;;;;;5053208;28;45665;-68
2023/12/21 11:50:47;;;;;;;;;0.00;0.00;;;;;;;;5053428;28;45431;-67
2023/12/21 11:53:15;;;;;;;;;0.33;0.00;;;;;;;;5053600;28;45376;-68
2023/12/21 11:55:42;;;;;;;;;2.33;1.00;;;;;;;;5054583;28;45413;-68
2023/12/21 11:58:07;;;;;;;;;1.00;0.00;;;;;;;;5047893;28;45891;-69
2023/12/21 12:00:33;;;;;;;;;3.67;1.00;;;;;;;;5055270;28;45458;-67
2023/12/21 12:02:59;;;;;;;;;0.00;0.00;;;;;;;;5053451;28;45538;-68
2023/12/21 12:05:24;;;;;;;;;0.00;0.00;;;;;;;;5054108;28;45523;-65
2023/12/21 12:07:49;;;;;;;;;2.00;0.00;;;;;;;;5054400;28;45490;-66
2023/12/21 12:10:17;;;;;;;;;0.00;0.00;;;;;;;;5054557;28;45498;-67
2023/12/21 12:12:43;;;;;;;;;3.33;1.00;;;;;;;;5053934;28;45545;-68
2023/12/21 12:15:08;;;;;;;;;1.67;0.67;;;;;;;;5055305;28;45257;-66
2023/12/21 12:17:39;;;;;;;;;1.67;0.33;;;;;;;;5054626;28;46472;-68
2023/12/21 12:20:04;;;;;;;;;2.67;1.00;;;;;;;;5048924;28;45479;-68
2023/12/21 12:22:30;;;;;;;;;2.67;0.00;;;;;;;;5054912;28;45638;-67
2023/12/21 12:24:55;;;;;;;;;2.00;0.67;;;;;;;;5047599;28;45734;-67
2023/12/21 12:27:20;;;;;;;;;1.67;0.00;;;;;;;;5035204;28;47246;-67
2023/12/21 12:29:46;;;;;;;;;2.67;0.00;;;;;;;;5056997;28;45449;-67
2023/12/21 12:32:11;;;;;;;;;0.00;0.00;;;;;;;;5063262;28;45415;-67
2023/12/21 12:34:37;;;;;;;;;3.00;2.00;;;;;;;;5059638;28;45423;-67
2023/12/21 12:37:02;;;;;;;;;1.67;1.67;;;;;;;;5062856;28;45728;-68
2023/12/21 12:39:28;;;;;;;;;2.67;1.00;;;;;;;;5072793;28;45355;-67
2023/12/21 12:41:54;;;;;;;;;0.00;0.00;;;;;;;;5075580;28;45555;-67
2023/12/21 12:44:19;;;;;;;;;0.33;0.00;;;;;;;;5076172;28;45433;-67
2023/12/21 12:46:45;;;;;;;;;5.67;2.00;;;;;;;;5057370;28;45418;-67
2023/12/21 12:49:12;;;;;;;;;1.00;1.00;;;;;;;;5057343;28;45456;-67
2023/12/21 12:51:37;;;;;;;;;0.33;0.33;;;;;;;;5061513;28;45325;-67
2023/12/21 12:54:06;;;;;;;;;5.00;2.00;;;;;;;;5060133;28;45426;-68
2023/12/21 12:56:31;;;;;;;;;1.00;1.00;;;;;;;;5056961;28;46733;-66
2023/12/21 12:58:57;;;;;;;;;2.00;0.33;;;;;;;;5058559;28;45424;-67
2023/12/21 13:01:22;;;;;;;;;4.33;0.00;;;;;;;;5069729;28;45193;-67
2023/12/21 13:03:48;;;;;;;;;1.00;1.00;;;;;;;;5060429;28;45465;-67
2023/12/21 13:06:13;;;;;;;;;3.67;1.33;;;;;;;;5061167;28;46057;-67
2023/12/21 13:08:38;;;;;;;;;1.67;1.00;;;;;;;;5063674;28;45146;-67
2023/12/21 13:11:03;;;;;;;;;2.00;1.00;;;;;;;;5059234;28;45583;-68
2023/12/21 13:13:29;;;;;;;;;2.00;2.00;;;;;;;;5050620;28;45483;-66
2023/12/21 13:15:54;;;;;;;;;3.67;1.00;;;;;;;;5057270;28;47591;-67
2023/12/21 13:18:19;;;;;;;;;5.33;2.00;;;;;;;;5052897;28;45616;-67
2023/12/21 13:20:44;;;;;;;;;3.00;1.67;;;;;;;;5038358;28;45534;-67
2023/12/21 13:23:11;;;;;;;;;2.00;2.00;;;;;;;;5057695;28;45455;-67
2023/12/21 13:25:36;;;;;;;;;3.00;1.67;;;;;;;;5053846;28;46668;-67
2023/12/21 13:28:02;;;;;;;;;8.67;3.00;;;;;;;;5057027;28;45352;-67
2023/12/21 13:30:28;;;;;;;;;5.00;1.00;;;;;;;;5051333;28;45542;-68
2023/12/21 13:32:55;;;;;;;;;2.00;1.33;;;;;;;;5051607;28;46802;-67
2023/12/21 13:35:20;;;;;;;;;5.33;1.67;;;;;;;;5055619;28;45279;-69
2023/12/21 13:37:46;;;;;;;;;2.67;1.00;;;;;;;;5056062;28;45450;-70
2023/12/21 13:40:11;;;;;;;;;3.67;2.00;;;;;;;;5057088;28;45794;-69
2023/12/21 13:42:36;;;;;;;;;4.00;1.00;;;;;;;;5055586;28;46728;-67
2023/12/21 13:45:04;;;;;;;;;3.67;2.33;;;;;;;;5054194;28;45824;-70
2023/12/21 13:47:29;;;;;;;;;5.67;2.00;;;;;;;;5056272;28;45308;-69
2023/12/21 13:49:54;;;;;;;;;9.67;1.00;;;;;;;;5055840;28;45764;-67
2023/12/21 13:52:19;;;;;;;;;1.67;1.00;;;;;;;;5056691;28;45460;-69
2023/12/21 13:54:45;;;;;;;;;5.33;2.00;;;;;;;;5050988;28;46832;-67
2023/12/21 13:57:10;;;;;;;;;1.00;1.00;;;;;;;;5049168;28;45687;-68
2023/12/21 13:59:35;;;;;;;;;7.33;1.00;;;;;;;;5054801;28;45494;-67
2023/12/21 14:02:00;;;;;;;;;3.00;2.00;;;;;;;;5055321;28;45351;-68
2023/12/21 14:04:25;;;;;;;;;4.33;2.00;;;;;;;;5055612;28;45598;-69
2023/12/21 14:06:51;;;;;;;;;1.67;0.00;;;;;;;;5056101;28;45438;-67
2023/12/21 14:09:17;;;;;;;;;1.00;0.00;;;;;;;;5056635;28;45485;-68
2023/12/21 14:11:42;;;;;;;;;3.33;1.00;;;;;;;;5051404;28;45618;-69
2023/12/21 14:14:07;;;;;;;;;4.00;1.00;;;;;;;;5056358;28;46232;-69
2023/12/21 14:16:32;;;;;;;;;2.67;1.00;;;;;;;;5056011;28;45454;-69
2023/12/21 14:18:57;;;;;;;;;6.00;2.00;;;;;;;;5055249;28;45449;-68
2023/12/21 14:21:22;;;;;;;;;2.33;1.00;;;;;;;;5054492;28;46351;-67
2023/12/21 14:23:48;;;;;;;;;4.00;1.33;;;;;;;;5056423;28;46466;-67
2023/12/21 14:26:13;;;;;;;;;4.00;2.00;;;;;;;;5053977;28;45411;-69
2023/12/21 14:28:38;;;;;;;;;3.00;1.00;;;;;;;;5045814;28;45566;-68
2023/12/21 14:31:04;;;;;;;;;3.67;2.00;;;;;;;;5055469;28;45488;-68
2023/12/21 14:33:29;;;;;;;;;3.00;0.00;;;;;;;;5056114;28;46355;-68
2023/12/21 14:35:54;;;;;;;;;2.33;1.00;;;;;;;;5051043;28;45427;-70